createdAt,value
2022-10-26T00:00:47.722Z,1.67
2022-10-26T00:03:15.036Z,1.55
2022-10-26T00:05:41.873Z,1.83
2022-10-26T00:08:08.460Z,1.75
2022-10-26T00:10:36.540Z,1.60
2022-10-26T00:13:03.976Z,1.40
2022-10-26T00:15:30.730Z,1.33
2022-10-26T00:17:57.207Z,1.40
2022-10-26T00:20:24.051Z,1.48
2022-10-26T00:22:50.610Z,1.30
2022-10-26T00:25:17.290Z,1.55
2022-10-26T00:27:43.746Z,1.35
2022-10-26T00:30:10.343Z,1.98
2022-10-26T00:32:36.826Z,1.40
2022-10-26T00:35:10.736Z,1.20
2022-10-26T00:37:48.219Z,1.10
2022-10-26T00:40:14.959Z,1.40
2022-10-26T00:42:41.388Z,1.15
2022-10-26T00:45:20.378Z,1.30
2022-10-26T00:47:51.002Z,1.73
2022-10-26T00:50:38.852Z,1.60
2022-10-26T00:53:06.925Z,1.50
2022-10-26T00:55:37.741Z,1.30
2022-10-26T00:58:08.709Z,1.27
2022-10-26T01:00:35.181Z,1.50
2022-10-26T01:03:06.197Z,1.20
2022-10-26T01:05:34.930Z,2.22
2022-10-26T01:08:02.344Z,1.30
2022-10-26T01:10:29.036Z,1.35
2022-10-26T01:12:57.786Z,1.02
2022-10-26T01:15:34.053Z,1.00
2022-10-26T01:18:25.574Z,1.13
2022-10-26T01:21:39.786Z,1.30
2022-10-26T01:24:36.345Z,1.10
2022-10-26T01:27:27.338Z,1.05
2022-10-26T01:30:21.832Z,1.20
2022-10-26T01:33:03.170Z,1.80
2022-10-26T01:35:38.265Z,1.10
2022-10-26T01:38:19.216Z,1.40
2022-10-26T01:41:09.656Z,1.58
2022-10-26T01:43:40.150Z,1.10
2022-10-26T01:46:09.076Z,1.23
2022-10-26T01:48:37.446Z,1.10
2022-10-26T01:51:06.213Z,1.30
2022-10-26T01:53:32.746Z,1.45
2022-10-26T01:55:59.912Z,1.58
2022-10-26T01:58:48.069Z,1.27
2022-10-26T02:01:42.278Z,1.30
2022-10-26T02:04:18.334Z,1.38
2022-10-26T02:07:19.464Z,1.20
2022-10-26T02:10:23.422Z,1.70
2022-10-26T02:13:03.216Z,1.23
2022-10-26T02:15:48.531Z,1.20
2022-10-26T02:23:22.948Z,1.35
2022-10-26T02:25:56.296Z,2.10
2022-10-26T02:28:31.145Z,1.33
2022-10-26T02:31:00.904Z,1.27
2022-10-26T02:33:30.786Z,1.33
2022-10-26T02:36:00.699Z,1.63
2022-10-26T02:38:30.551Z,1.15
2022-10-26T02:40:58.069Z,1.13
2022-10-26T02:43:26.505Z,1.10
2022-10-26T02:45:59.392Z,0.98
2022-10-26T02:48:25.947Z,1.30
2022-10-26T02:51:20.390Z,1.10
2022-10-26T02:53:50.332Z,1.15
2022-10-26T02:56:24.320Z,1.20
2022-10-26T02:58:55.672Z,1.97
2022-10-26T03:01:22.065Z,1.52
2022-10-26T03:03:48.685Z,2.72
2022-10-26T03:06:24.490Z,1.05
2022-10-26T03:08:51.165Z,1.10
2022-10-26T03:11:17.685Z,1.42
2022-10-26T03:13:44.522Z,1.20
2022-10-26T03:16:11.485Z,1.08
2022-10-26T03:18:37.961Z,1.13
2022-10-26T03:21:04.398Z,1.38
2022-10-26T03:23:30.802Z,1.02
2022-10-26T03:25:58.397Z,1.65
2022-10-26T03:28:25.075Z,1.60
2022-10-26T03:30:51.601Z,1.25
2022-10-26T03:33:18.154Z,1.30
2022-10-26T03:35:44.624Z,1.20
2022-10-26T03:38:15.259Z,1.20
2022-10-26T03:40:42.596Z,1.27
2022-10-26T03:43:08.990Z,0.98
2022-10-26T03:45:35.461Z,1.27
2022-10-26T03:48:01.858Z,1.38
2022-10-26T03:50:28.242Z,1.30
2022-10-26T03:52:54.603Z,1.30
2022-10-26T03:55:21.038Z,1.15
2022-10-26T03:57:47.465Z,1.17
2022-10-26T04:00:16.614Z,1.40
2022-10-26T04:02:54.015Z,1.20
2022-10-26T04:05:20.565Z,1.38
2022-10-26T04:07:53.965Z,1.27
2022-10-26T04:10:20.985Z,1.33
2022-10-26T04:12:47.425Z,1.52
2022-10-26T04:15:13.982Z,1.70
2022-10-26T04:17:40.393Z,1.45
2022-10-26T04:20:07.701Z,1.58
2022-10-26T04:22:34.245Z,1.40
2022-10-26T04:25:00.669Z,1.25
2022-10-26T04:27:27.071Z,1.30
2022-10-26T04:29:53.425Z,1.27
2022-10-26T04:32:19.851Z,1.17
2022-10-26T04:34:46.310Z,1.33
2022-10-26T04:37:12.797Z,1.45
2022-10-26T04:39:39.210Z,1.30
2022-10-26T04:42:05.643Z,1.20
2022-10-26T04:44:32.024Z,1.10
2022-10-26T04:46:58.520Z,1.17
2022-10-26T04:49:24.889Z,1.40
2022-10-26T04:51:51.237Z,1.30
2022-10-26T04:54:17.641Z,1.10
2022-10-26T04:56:44.061Z,1.67
2022-10-26T04:59:10.581Z,1.10
2022-10-26T05:01:37.021Z,1.27
2022-10-26T05:04:03.549Z,1.38
2022-10-26T05:06:30.242Z,1.23
2022-10-26T05:08:56.705Z,1.23
2022-10-26T05:11:23.127Z,1.27
2022-10-26T05:13:49.525Z,1.50
2022-10-26T05:16:16.400Z,1.45
2022-10-26T05:18:42.795Z,1.60
2022-10-26T05:21:09.259Z,1.35
2022-10-26T05:23:35.685Z,1.40
2022-10-26T05:26:02.066Z,1.20
2022-10-26T05:28:28.482Z,1.73
2022-10-26T05:30:54.905Z,1.27
2022-10-26T05:33:21.309Z,1.38
2022-10-26T05:35:47.678Z,1.30
2022-10-26T05:38:17.960Z,1.10
2022-10-26T05:40:48.828Z,1.20
2022-10-26T05:43:15.248Z,1.50
2022-10-26T05:45:41.648Z,2.53
2022-10-26T05:48:08.099Z,1.45
2022-10-26T05:50:34.765Z,1.13
2022-10-26T05:53:01.166Z,1.48
2022-10-26T05:55:28.207Z,1.05
2022-10-26T05:57:55.010Z,1.50
2022-10-26T06:00:24.470Z,1.23
2022-10-26T06:03:15.165Z,1.13
2022-10-26T06:05:52.513Z,1.30
2022-10-26T06:08:20.469Z,1.30
2022-10-26T06:10:47.954Z,1.10
2022-10-26T06:13:14.810Z,1.20
2022-10-26T06:15:53.796Z,1.60
2022-10-26T06:18:39.586Z,1.52
2022-10-26T06:21:27.718Z,1.20
2022-10-26T06:24:07.761Z,1.30
2022-10-26T06:26:46.089Z,1.20
2022-10-26T06:29:24.915Z,1.38
2022-10-26T06:31:51.297Z,1.30
2022-10-26T06:34:32.873Z,1.10
2022-10-26T06:37:00.760Z,1.77
2022-10-26T06:39:35.542Z,1.95
2022-10-26T06:42:02.350Z,1.50
2022-10-26T06:44:29.052Z,1.40
2022-10-26T06:47:04.558Z,1.35
2022-10-26T06:49:42.728Z,1.13
2022-10-26T06:52:20.862Z,1.40
2022-10-26T06:54:55.586Z,1.00
2022-10-26T06:57:25.131Z,0.90
2022-10-26T06:59:54.153Z,1.10
2022-10-26T07:02:21.053Z,1.20
2022-10-26T07:04:47.635Z,1.40
2022-10-26T07:07:17.678Z,1.25
2022-10-26T07:09:44.079Z,0.85
2022-10-26T07:12:10.495Z,0.80
2022-10-26T07:14:36.896Z,1.02
2022-10-26T07:17:03.519Z,1.20
2022-10-26T07:19:29.933Z,1.20
2022-10-26T07:21:57.475Z,1.90
2022-10-26T07:24:24.089Z,1.38
2022-10-26T07:26:50.606Z,1.30
2022-10-26T07:29:18.122Z,1.02
2022-10-26T07:31:44.583Z,1.30
2022-10-26T07:34:11.035Z,1.40
2022-10-26T07:36:37.662Z,1.33
2022-10-26T07:39:04.476Z,1.33
2022-10-26T07:41:30.930Z,1.58
2022-10-26T07:43:57.731Z,1.27
2022-10-26T07:46:24.681Z,1.60
2022-10-26T07:48:51.202Z,1.92
2022-10-26T07:51:17.756Z,1.40
2022-10-26T07:53:45.044Z,1.52
2022-10-26T07:56:12.083Z,1.42
2022-10-26T07:58:38.872Z,1.33
2022-10-26T08:01:11.381Z,1.17
2022-10-26T08:03:38.013Z,1.13
2022-10-26T08:06:05.084Z,1.42
2022-10-26T08:08:32.538Z,1.13
2022-10-26T08:10:59.586Z,1.23
2022-10-26T08:13:26.839Z,1.60
2022-10-26T08:16:00.893Z,1.40
2022-10-26T08:18:27.507Z,1.27
2022-10-26T08:20:58.774Z,1.58
2022-10-26T08:23:32.576Z,1.40
2022-10-26T08:26:03.322Z,1.42
2022-10-26T08:28:30.171Z,1.50
2022-10-26T08:30:57.333Z,1.10
2022-10-26T08:33:24.269Z,1.30
2022-10-26T08:35:58.131Z,1.00
2022-10-26T08:38:24.913Z,1.07
2022-10-26T08:40:52.941Z,1.17
2022-10-26T08:43:28.011Z,1.10
2022-10-26T08:46:00.821Z,1.70
2022-10-26T08:48:37.808Z,1.40
2022-10-26T08:51:15.886Z,1.20
2022-10-26T08:54:01.804Z,1.40
2022-10-26T08:56:37.784Z,1.00
2022-10-26T08:59:29.929Z,1.30
2022-10-26T09:01:56.686Z,1.50
2022-10-26T09:04:28.061Z,1.40
2022-10-26T09:07:06.300Z,1.30
2022-10-26T09:09:43.909Z,2.15
2022-10-26T09:12:42.407Z,1.25
2022-10-26T09:15:23.817Z,1.30
2022-10-26T09:18:11.715Z,1.20
2022-10-26T09:20:53.579Z,1.23
2022-10-26T09:23:50.826Z,1.50
2022-10-26T09:26:44.773Z,2.33
2022-10-26T09:29:14.091Z,2.03
2022-10-26T09:31:47.443Z,1.55
2022-10-26T09:34:20.243Z,1.40
2022-10-26T09:36:47.033Z,1.70
2022-10-26T09:39:28.363Z,1.40
2022-10-26T09:42:14.479Z,1.40
2022-10-26T09:44:50.310Z,1.23
2022-10-26T09:47:32.037Z,1.50
2022-10-26T09:50:23.540Z,1.40
2022-10-26T09:52:50.193Z,1.80
2022-10-26T09:55:17.161Z,1.40
2022-10-26T09:57:50.338Z,2.17
2022-10-26T10:00:19.089Z,1.48
2022-10-26T10:02:51.021Z,1.30
2022-10-26T10:05:27.519Z,1.55
2022-10-26T10:08:25.911Z,1.75
2022-10-26T10:11:08.915Z,1.63
2022-10-26T10:13:46.378Z,1.40
2022-10-26T10:16:20.659Z,1.38
2022-10-26T10:18:55.181Z,1.60
2022-10-26T10:21:22.276Z,1.85
2022-10-26T10:23:54.600Z,1.27
2022-10-26T10:26:21.006Z,1.85
2022-10-26T10:28:59.100Z,1.83
2022-10-26T10:31:30.626Z,1.83
2022-10-26T10:33:57.734Z,1.70
2022-10-26T10:36:29.251Z,1.38
2022-10-26T10:38:56.389Z,1.80
2022-10-26T10:41:32.606Z,1.60
2022-10-26T10:44:16.001Z,1.70
2022-10-26T10:46:42.830Z,1.70
2022-10-26T10:49:23.754Z,1.75
2022-10-26T10:51:51.021Z,1.80
2022-10-26T10:54:33.714Z,1.92
2022-10-26T10:57:14.182Z,2.03
2022-10-26T11:00:09.585Z,1.77
2022-10-26T11:03:01.214Z,1.67
2022-10-26T11:05:49.213Z,1.52
2022-10-26T11:08:26.148Z,1.98
2022-10-26T11:11:00.497Z,1.60
2022-10-26T11:13:37.333Z,1.80
2022-10-26T11:16:19.326Z,1.92
2022-10-26T11:18:52.651Z,1.67
2022-10-26T11:21:26.192Z,1.92
2022-10-26T11:24:01.625Z,2.22
2022-10-26T11:26:34.198Z,1.67
2022-10-26T11:29:38.358Z,1.90
2022-10-26T11:32:43.517Z,1.80
2022-10-26T11:35:33.106Z,1.60
2022-10-26T11:38:28.012Z,1.63
2022-10-26T11:41:25.240Z,1.10
2022-10-26T11:44:05.368Z,1.30
2022-10-26T11:46:38.064Z,1.02
2022-10-26T11:49:19.630Z,1.20
2022-10-26T11:51:57.821Z,1.20
2022-10-26T11:54:31.880Z,1.00
2022-10-26T11:56:59.556Z,1.20
2022-10-26T11:59:33.064Z,0.85
2022-10-26T12:02:14.164Z,1.20
2022-10-26T12:04:44.523Z,0.90
2022-10-26T12:07:20.226Z,1.10
2022-10-26T12:09:46.619Z,0.80
2022-10-26T12:12:17.613Z,1.42
2022-10-26T12:15:01.926Z,1.17
2022-10-26T12:17:35.713Z,0.80
2022-10-26T12:20:30.162Z,0.90
2022-10-26T12:22:56.650Z,1.10
2022-10-26T12:25:23.175Z,0.80
2022-10-26T12:27:53.774Z,1.10
2022-10-26T12:30:26.968Z,1.02
2022-10-26T12:32:55.572Z,1.00
2022-10-26T12:35:42.698Z,1.00
2022-10-26T12:38:24.187Z,1.23
2022-10-26T12:41:09.851Z,1.33
2022-10-26T12:43:39.304Z,1.00
2022-10-26T12:46:14.735Z,0.80
2022-10-26T12:48:45.887Z,1.13
2022-10-26T12:51:27.428Z,1.10
2022-10-26T12:54:01.632Z,1.10
2022-10-26T12:56:35.670Z,1.10
2022-10-26T12:59:22.534Z,1.20
2022-10-26T13:02:27.738Z,1.20
2022-10-26T13:05:21.825Z,0.90
2022-10-26T13:07:49.720Z,1.00
2022-10-26T13:10:21.582Z,1.17
2022-10-26T13:12:57.719Z,1.30
2022-10-26T13:15:29.549Z,1.08
2022-10-26T13:18:07.509Z,1.15
2022-10-26T13:20:36.276Z,0.90
2022-10-26T13:23:17.037Z,0.98
2022-10-26T13:26:05.864Z,0.93
2022-10-26T13:28:38.395Z,1.10
2022-10-26T13:31:41.512Z,0.80
2022-10-26T13:34:16.608Z,1.02
2022-10-26T13:36:55.296Z,1.33
2022-10-26T13:39:29.202Z,1.10
2022-10-26T13:41:58.056Z,1.10
2022-10-26T13:44:38.834Z,0.90
2022-10-26T13:47:11.555Z,1.08
2022-10-26T13:49:45.406Z,0.95
2022-10-26T13:52:34.093Z,0.70
2022-10-26T13:55:07.875Z,1.25
2022-10-26T13:57:45.971Z,0.95
2022-10-26T14:00:22.252Z,1.15
2022-10-26T14:02:49.267Z,0.98
2022-10-26T14:05:17.863Z,0.90
2022-10-26T14:07:58.147Z,1.20
2022-10-26T14:10:29.474Z,1.13
2022-10-26T14:12:57.574Z,1.10
2022-10-26T14:15:27.941Z,1.20
2022-10-26T14:17:55.600Z,1.70
2022-10-26T14:20:24.637Z,1.13
2022-10-26T14:22:51.609Z,0.80
2022-10-26T14:25:42.041Z,0.90
2022-10-26T14:28:29.471Z,0.98
2022-10-26T14:31:15.121Z,0.73
2022-10-26T14:33:44.381Z,0.88
2022-10-26T14:36:11.473Z,1.20
2022-10-26T14:38:44.520Z,1.40
2022-10-26T14:41:14.059Z,1.13
2022-10-26T14:43:40.583Z,0.85
2022-10-26T14:46:14.608Z,1.00
2022-10-26T14:48:49.827Z,0.73
2022-10-26T14:51:18.855Z,0.98
2022-10-26T14:53:53.331Z,0.90
2022-10-26T14:56:48.974Z,1.15
2022-10-26T14:59:27.607Z,1.15
2022-10-26T15:01:56.830Z,1.00
2022-10-26T15:04:32.893Z,1.30
2022-10-26T15:07:09.833Z,1.23
2022-10-26T15:09:43.877Z,0.93
2022-10-26T15:12:27.241Z,1.02
2022-10-26T15:14:53.931Z,1.40
2022-10-26T15:17:24.468Z,1.40
2022-10-26T15:19:52.171Z,1.30
2022-10-26T15:22:32.070Z,1.00
2022-10-26T15:25:02.379Z,1.45
2022-10-26T15:27:28.863Z,1.33
2022-10-26T15:30:18.766Z,1.00
2022-10-26T15:32:45.859Z,1.10
2022-10-26T15:35:19.725Z,1.10
2022-10-26T15:37:47.598Z,1.52
2022-10-26T15:40:14.782Z,1.15
2022-10-26T15:42:42.548Z,1.10
2022-10-26T15:45:36.113Z,1.30
2022-10-26T15:48:18.982Z,1.33
2022-10-26T15:50:45.400Z,1.40
2022-10-26T15:53:19.182Z,1.98
2022-10-26T15:55:45.906Z,1.30
2022-10-26T15:58:12.350Z,1.92
2022-10-26T16:00:38.746Z,1.90
2022-10-26T16:03:05.184Z,1.13
2022-10-26T16:08:03.049Z,1.00
2022-10-26T16:10:29.551Z,1.15
2022-10-26T16:12:56.021Z,1.15
2022-10-26T16:15:24.602Z,1.02
2022-10-26T16:17:51.949Z,0.93
2022-10-26T16:20:24.970Z,1.42
2022-10-26T16:22:52.874Z,1.17
2022-10-26T16:25:25.406Z,1.80
2022-10-26T16:27:53.458Z,1.42
2022-10-26T16:30:21.100Z,1.85
2022-10-26T16:32:48.275Z,1.63
2022-10-26T16:35:15.185Z,1.40
2022-10-26T16:37:41.701Z,1.20
2022-10-26T16:40:09.530Z,1.48
2022-10-26T16:42:36.135Z,1.50
2022-10-26T16:45:03.328Z,1.55
2022-10-26T16:47:35.397Z,1.88
2022-10-26T16:50:02.417Z,2.13
2022-10-26T16:52:28.879Z,2.03
2022-10-26T16:54:55.317Z,1.30
2022-10-26T16:57:21.777Z,1.40
2022-10-26T16:59:48.207Z,2.25
2022-10-26T17:02:15.169Z,1.42
2022-10-26T17:04:41.718Z,1.00
2022-10-26T17:07:08.342Z,1.50
2022-10-26T17:09:34.993Z,1.15
2022-10-26T17:12:02.229Z,1.27
2022-10-26T17:14:28.841Z,1.50
2022-10-26T17:16:55.256Z,1.33
2022-10-26T17:19:21.654Z,1.50
2022-10-26T17:21:48.067Z,1.73
2022-10-26T17:24:14.854Z,2.42
2022-10-26T17:26:41.744Z,1.30
2022-10-26T17:31:40.933Z,1.73
2022-10-26T17:34:07.456Z,1.70
2022-10-26T17:36:34.258Z,1.38
2022-10-26T17:39:00.968Z,1.30
2022-10-26T17:41:27.399Z,1.48
2022-10-26T17:43:53.797Z,1.38
2022-10-26T17:46:24.201Z,1.30
2022-10-26T17:48:58.242Z,1.65
2022-10-26T17:51:26.216Z,1.50
2022-10-26T17:53:53.104Z,1.70
2022-10-26T17:56:24.781Z,1.83
2022-10-26T17:58:55.939Z,2.00
2022-10-26T18:01:23.246Z,1.50
2022-10-26T18:03:50.199Z,1.50
2022-10-26T18:06:20.010Z,1.70
2022-10-26T18:08:46.916Z,1.77
2022-10-26T18:11:25.357Z,1.58
2022-10-26T18:13:53.803Z,1.77
2022-10-26T18:16:24.329Z,1.83
2022-10-26T18:19:04.691Z,1.77
2022-10-26T18:21:33.862Z,1.98
2022-10-26T18:24:00.572Z,1.90
2022-10-26T18:26:28.870Z,1.65
2022-10-26T18:28:56.434Z,1.70
2022-10-26T18:31:24.805Z,1.92
2022-10-26T18:33:59.260Z,1.65
2022-10-26T18:36:26.423Z,1.90
2022-10-26T18:38:53.649Z,1.52
2022-10-26T18:41:21.366Z,1.90
2022-10-26T18:43:50.045Z,1.73
2022-10-26T18:46:24.595Z,2.08
2022-10-26T18:48:52.407Z,2.00
2022-10-26T18:51:25.314Z,1.83
2022-10-26T18:53:52.093Z,1.60
2022-10-26T18:56:20.783Z,1.83
2022-10-26T18:58:49.730Z,1.77
2022-10-26T19:01:21.457Z,1.73
2022-10-26T19:03:52.358Z,2.20
2022-10-26T19:06:21.541Z,1.77
2022-10-26T19:08:48.245Z,2.53
2022-10-26T19:11:17.353Z,2.70
2022-10-26T19:13:44.413Z,2.33
2022-10-26T19:16:17.466Z,3.33
2022-10-26T19:21:22.666Z,1.77
2022-10-26T19:23:53.720Z,1.70
2022-10-26T19:26:25.518Z,2.00
2022-10-26T19:28:59.189Z,2.10
2022-10-26T19:31:27.623Z,2.33
2022-10-26T19:33:56.429Z,2.28
2022-10-26T19:36:22.932Z,1.88
2022-10-26T19:38:49.539Z,2.75
2022-10-26T19:41:16.836Z,2.40
2022-10-26T19:43:43.885Z,2.47
2022-10-26T19:46:13.597Z,1.92
2022-10-26T19:48:41.183Z,2.05
2022-10-26T19:51:08.560Z,2.60
2022-10-26T19:53:35.520Z,1.90
2022-10-26T19:56:02.365Z,2.30
2022-10-26T19:58:31.263Z,1.90
2022-10-26T20:00:59.149Z,2.15
2022-10-26T20:03:26.543Z,2.05
2022-10-26T20:05:56.769Z,2.03
2022-10-26T20:08:23.916Z,2.03
2022-10-26T20:10:54.211Z,2.30
2022-10-26T20:13:21.122Z,2.85
2022-10-26T20:15:49.889Z,2.33
2022-10-26T20:18:16.770Z,1.60
2022-10-26T20:20:43.319Z,2.78
2022-10-26T20:23:10.943Z,2.25
2022-10-26T20:25:39.290Z,2.08
2022-10-26T20:28:06.658Z,1.80
2022-10-26T20:30:35.269Z,1.63
2022-10-26T20:33:01.698Z,1.65
2022-10-26T20:35:28.202Z,1.90
2022-10-26T20:37:55.878Z,2.13
2022-10-26T20:40:23.978Z,1.73
2022-10-26T20:42:52.639Z,1.98
2022-10-26T20:45:30.159Z,1.98
2022-10-26T20:47:57.824Z,2.17
2022-10-26T20:50:26.219Z,2.00
2022-10-26T20:53:01.714Z,1.95
2022-10-26T20:55:54.513Z,2.00
2022-10-26T20:58:37.542Z,2.17
2022-10-26T21:01:07.615Z,2.22
2022-10-26T21:03:34.122Z,2.55
2022-10-26T21:06:00.546Z,2.28
2022-10-26T21:08:26.947Z,2.47
2022-10-26T21:10:53.393Z,2.00
2022-10-26T21:13:19.811Z,2.97
2022-10-26T21:15:46.196Z,2.35
2022-10-26T21:18:13.004Z,2.97
2022-10-26T21:20:39.369Z,2.50
2022-10-26T21:23:05.737Z,2.75
2022-10-26T21:25:32.231Z,3.13
2022-10-26T21:27:58.860Z,2.65
2022-10-26T21:30:25.951Z,2.03
2022-10-26T21:32:53.172Z,3.15
2022-10-26T21:35:20.971Z,2.30
2022-10-26T21:37:47.485Z,2.25
2022-10-26T21:40:14.714Z,1.95
2022-10-26T21:42:41.393Z,2.60
2022-10-26T21:45:08.488Z,2.35
2022-10-26T21:47:34.922Z,2.00
2022-10-26T21:50:01.466Z,2.20
2022-10-26T21:52:28.701Z,2.17
2022-10-26T21:54:55.053Z,2.35
2022-10-26T21:57:21.475Z,2.20
2022-10-26T21:59:47.970Z,2.67
2022-10-26T22:02:14.425Z,2.45
2022-10-26T22:04:40.869Z,2.95
2022-10-26T22:07:07.271Z,2.47
2022-10-26T22:09:40.609Z,2.67
2022-10-26T22:12:15.946Z,3.05
2022-10-26T22:14:42.593Z,2.70
2022-10-26T22:17:09.030Z,2.25
2022-10-26T22:19:35.470Z,2.63
2022-10-26T22:22:01.894Z,2.58
2022-10-26T22:24:28.328Z,3.13
2022-10-26T22:26:54.670Z,2.40
2022-10-26T22:29:21.105Z,2.20
2022-10-26T22:31:47.532Z,2.15
2022-10-26T22:34:16.051Z,2.50
2022-10-26T22:36:43.163Z,2.65
2022-10-26T22:39:09.579Z,2.20
2022-10-26T22:41:35.974Z,2.88
2022-10-26T22:44:02.541Z,2.45
2022-10-26T22:46:28.924Z,3.00
2022-10-26T22:49:00.400Z,3.90
2022-10-26T22:51:30.254Z,2.53
2022-10-26T22:53:58.721Z,2.55
2022-10-26T22:58:58.355Z,2.70
2022-10-26T23:01:27.314Z,2.63
2022-10-26T23:03:56.203Z,3.03
2022-10-26T23:06:24.625Z,2.55
2022-10-26T23:08:51.100Z,2.88
2022-10-26T23:11:20.208Z,2.85
2022-10-26T23:13:47.229Z,2.38
2022-10-26T23:16:20.419Z,2.20
2022-10-26T23:18:47.870Z,2.40
2022-10-26T23:21:15.356Z,2.60
2022-10-26T23:23:42.414Z,2.70
2022-10-26T23:26:12.828Z,2.50
2022-10-26T23:28:40.382Z,2.33
2022-10-26T23:31:07.643Z,2.42
2022-10-26T23:33:34.512Z,2.33
2022-10-26T23:36:01.514Z,2.50
2022-10-26T23:38:27.906Z,2.25
2022-10-26T23:40:56.749Z,2.50
2022-10-26T23:43:23.904Z,2.50
2022-10-26T23:45:50.513Z,2.17
2022-10-26T23:48:17.478Z,2.25
2022-10-26T23:50:45.644Z,2.33
2022-10-26T23:53:13.009Z,2.53
2022-10-26T23:55:39.587Z,1.85
2022-10-26T23:58:06.360Z,2.50
